createdAt,value
2019-03-20T00:00:43.951Z,90.30
2019-03-20T00:03:12.898Z,90.40
2019-03-20T00:05:42.191Z,90.00
2019-03-20T00:08:11.071Z,88.90
2019-03-20T00:10:39.977Z,88.40
2019-03-20T00:13:08.815Z,90.00
2019-03-20T00:15:37.665Z,89.30
2019-03-20T00:18:06.704Z,88.00
2019-03-20T00:20:35.589Z,87.70
2019-03-20T00:23:04.466Z,88.30
2019-03-20T00:25:33.392Z,88.40
2019-03-20T00:28:02.322Z,88.50
2019-03-20T00:30:31.191Z,88.50
2019-03-20T00:33:00.095Z,88.60
2019-03-20T00:35:28.909Z,88.80
2019-03-20T00:37:57.767Z,87.50
2019-03-20T00:40:26.731Z,87.70
2019-03-20T00:42:55.613Z,88.80
2019-03-20T00:45:24.488Z,86.10
2019-03-20T00:47:53.398Z,87.70
2019-03-20T00:50:22.256Z,86.60
2019-03-20T00:52:51.124Z,87.30
2019-03-20T00:55:20.729Z,87.00
2019-03-20T00:57:49.594Z,87.40
2019-03-20T01:00:23.462Z,87.20
2019-03-20T01:02:52.377Z,87.80
2019-03-20T01:05:23.975Z,88.00
2019-03-20T01:07:52.854Z,87.30
2019-03-20T01:10:22.732Z,88.00
2019-03-20T01:12:51.694Z,88.60
2019-03-20T01:15:21.476Z,89.00
2019-03-20T01:17:50.410Z,89.50
2019-03-20T01:20:20.612Z,91.00
2019-03-20T01:22:49.488Z,89.60
2019-03-20T01:25:19.007Z,90.10
2019-03-20T01:27:48.011Z,90.90
2019-03-20T01:30:40.309Z,90.10
2019-03-20T01:33:13.061Z,91.30
2019-03-20T01:35:42.497Z,90.50
2019-03-20T01:38:11.807Z,90.50
2019-03-20T01:40:41.157Z,91.30
2019-03-20T01:43:10.099Z,92.00
2019-03-20T01:45:40.595Z,92.00
2019-03-20T01:48:09.500Z,91.60
2019-03-20T01:50:38.425Z,92.10
2019-03-20T01:53:07.293Z,91.90
2019-03-20T01:55:36.227Z,91.20
2019-03-20T01:58:05.119Z,91.10
2019-03-20T02:00:33.997Z,91.20
2019-03-20T02:03:02.881Z,91.20
2019-03-20T02:05:36.209Z,91.70
2019-03-20T02:08:02.366Z,91.40
2019-03-20T02:10:31.288Z,91.30
2019-03-20T02:13:00.123Z,91.50
2019-03-20T02:15:48.354Z,91.50
2019-03-20T02:18:17.419Z,91.70
2019-03-20T02:20:46.283Z,91.70
2019-03-20T02:23:15.154Z,91.30
2019-03-20T02:25:44.067Z,91.20
2019-03-20T02:28:12.888Z,92.50
2019-03-20T02:30:41.845Z,91.90
2019-03-20T02:33:10.762Z,92.40
2019-03-20T02:35:50.650Z,91.80
2019-03-20T02:38:10.183Z,91.40
2019-03-20T02:40:39.096Z,91.80
2019-03-20T02:43:07.955Z,91.90
2019-03-20T02:45:36.927Z,92.20
2019-03-20T02:48:25.087Z,92.90
2019-03-20T02:50:53.999Z,92.60
2019-03-20T02:53:24.344Z,93.00
2019-03-20T02:55:54.472Z,93.20
2019-03-20T02:58:23.396Z,92.90
2019-03-20T03:00:52.271Z,92.60
2019-03-20T03:03:21.179Z,93.00
2019-03-20T03:05:50.058Z,93.30
2019-03-20T03:08:18.934Z,93.30
2019-03-20T03:10:47.852Z,92.60
2019-03-20T03:13:16.726Z,92.20
2019-03-20T03:15:45.581Z,92.20
2019-03-20T03:18:14.453Z,91.90
2019-03-20T03:20:43.385Z,91.70
2019-03-20T03:23:12.284Z,91.40
2019-03-20T03:25:41.207Z,91.50
2019-03-20T03:28:10.069Z,91.00
2019-03-20T03:30:38.952Z,91.00
2019-03-20T03:33:07.911Z,91.20
2019-03-20T03:35:36.807Z,91.50
2019-03-20T03:38:05.680Z,91.00
2019-03-20T03:40:35.066Z,91.50
2019-03-20T03:43:04.221Z,91.60
2019-03-20T03:45:52.448Z,91.90
2019-03-20T03:48:21.919Z,91.80
2019-03-20T03:50:50.818Z,91.90
2019-03-20T03:53:19.723Z,91.50
2019-03-20T03:55:48.587Z,91.60
2019-03-20T03:58:17.456Z,91.70
2019-03-20T04:00:46.385Z,91.80
2019-03-20T04:03:15.237Z,91.70
2019-03-20T04:05:44.094Z,91.90
2019-03-20T04:08:13.008Z,91.80
2019-03-20T04:10:41.894Z,91.70
2019-03-20T04:13:12.566Z,92.00
2019-03-20T04:15:41.648Z,92.10
2019-03-20T04:18:10.560Z,92.20
2019-03-20T04:20:39.453Z,92.10
2019-03-20T04:23:08.381Z,92.40
2019-03-20T04:25:37.206Z,92.60
2019-03-20T04:28:06.057Z,92.60
2019-03-20T04:30:34.970Z,92.70
2019-03-20T04:33:03.871Z,93.00
2019-03-20T04:35:32.745Z,92.90
2019-03-20T04:38:01.657Z,92.80
2019-03-20T04:40:30.520Z,93.10
2019-03-20T04:42:59.422Z,92.90
2019-03-20T04:45:28.299Z,92.80
2019-03-20T04:47:57.183Z,93.10
2019-03-20T04:50:26.082Z,93.10
2019-03-20T04:52:54.964Z,92.80
2019-03-20T04:55:23.853Z,93.00
2019-03-20T04:57:52.778Z,93.20
2019-03-20T05:00:23.522Z,93.10
2019-03-20T05:02:52.394Z,93.30
2019-03-20T05:05:21.294Z,93.10
2019-03-20T05:07:50.184Z,93.10
2019-03-20T05:10:20.053Z,93.00
2019-03-20T05:12:48.963Z,92.80
2019-03-20T05:15:17.807Z,92.80
2019-03-20T05:17:48.308Z,92.70
2019-03-20T05:20:20.886Z,92.90
2019-03-20T05:22:49.760Z,92.80
2019-03-20T05:25:18.621Z,92.80
2019-03-20T05:27:47.533Z,93.10
2019-03-20T05:30:16.903Z,93.00
2019-03-20T05:32:45.775Z,93.30
2019-03-20T05:35:14.788Z,93.00
2019-03-20T05:37:43.663Z,93.10
2019-03-20T05:40:17.010Z,93.20
2019-03-20T05:42:45.928Z,93.40
2019-03-20T05:45:19.363Z,93.40
2019-03-20T05:47:48.234Z,93.30
2019-03-20T05:50:18.147Z,93.50
2019-03-20T05:52:47.136Z,93.80
2019-03-20T05:55:17.505Z,93.90
2019-03-20T05:57:46.430Z,93.50
2019-03-20T06:00:18.299Z,93.40
2019-03-20T06:02:47.272Z,93.90
2019-03-20T06:05:16.194Z,94.10
2019-03-20T06:07:45.036Z,94.00
2019-03-20T06:10:16.058Z,94.30
2019-03-20T06:12:45.045Z,94.10
2019-03-20T06:15:14.884Z,94.00
2019-03-20T06:17:43.785Z,93.90
2019-03-20T06:20:14.109Z,93.90
2019-03-20T06:22:43.071Z,93.90
2019-03-20T06:25:13.706Z,94.10
2019-03-20T06:27:42.644Z,94.10
2019-03-20T06:30:19.822Z,94.10
2019-03-20T06:32:48.914Z,94.30
2019-03-20T06:35:18.278Z,94.20
2019-03-20T06:37:47.234Z,94.30
2019-03-20T06:40:17.269Z,94.70
2019-03-20T06:42:46.452Z,94.50
2019-03-20T06:45:16.805Z,94.30
2019-03-20T06:47:45.807Z,94.40
2019-03-20T06:50:17.505Z,94.50
2019-03-20T06:52:46.411Z,94.80
2019-03-20T06:55:23.279Z,94.90
2019-03-20T06:57:52.242Z,94.70
2019-03-20T07:00:42.238Z,94.90
2019-03-20T07:03:23.201Z,95.00
2019-03-20T07:06:22.435Z,94.50
2019-03-20T07:08:55.225Z,94.70
2019-03-20T07:11:22.930Z,94.80
2019-03-20T07:13:51.957Z,95.00
2019-03-20T07:16:20.893Z,94.80
2019-03-20T07:18:49.868Z,95.00
2019-03-20T07:21:18.964Z,95.10
2019-03-20T07:23:47.951Z,95.00
2019-03-20T07:26:16.952Z,95.00
2019-03-20T07:28:45.847Z,95.10
2019-03-20T07:31:26.978Z,94.90
2019-03-20T07:33:55.966Z,94.90
2019-03-20T07:36:24.863Z,95.10
2019-03-20T07:39:00.356Z,95.20
2019-03-20T07:41:29.500Z,95.20
2019-03-20T07:43:58.401Z,95.10
2019-03-20T07:46:29.724Z,95.00
2019-03-20T07:48:58.685Z,95.10
2019-03-20T07:51:27.585Z,95.20
2019-03-20T07:53:56.580Z,95.10
2019-03-20T07:56:26.465Z,95.10
2019-03-20T07:58:55.513Z,95.10
2019-03-20T08:01:24.389Z,95.10
2019-03-20T08:03:53.300Z,95.20
2019-03-20T08:06:22.212Z,95.40
2019-03-20T08:08:51.082Z,94.90
2019-03-20T08:11:19.999Z,94.90
2019-03-20T08:13:48.937Z,95.00
2019-03-20T08:16:17.794Z,94.90
2019-03-20T08:18:46.819Z,94.70
2019-03-20T08:21:16.750Z,94.60
2019-03-20T08:23:45.664Z,94.60
2019-03-20T08:26:14.561Z,94.60
2019-03-20T08:28:43.426Z,94.70
2019-03-20T08:31:12.386Z,94.60
2019-03-20T08:33:41.255Z,94.50
2019-03-20T08:36:10.188Z,94.50
2019-03-20T08:38:39.170Z,94.30
2019-03-20T08:41:08.057Z,94.40
2019-03-20T08:43:36.931Z,94.50
2019-03-20T08:46:05.817Z,94.20
2019-03-20T08:48:34.696Z,94.20
2019-03-20T08:51:03.594Z,94.30
2019-03-20T08:53:32.515Z,94.60
2019-03-20T08:56:01.382Z,94.30
2019-03-20T08:58:30.255Z,94.30
2019-03-20T09:00:59.207Z,94.30
2019-03-20T09:03:28.099Z,94.30
2019-03-20T09:05:56.959Z,94.20
2019-03-20T09:08:29.709Z,94.10
2019-03-20T09:10:56.400Z,94.20
2019-03-20T09:13:25.293Z,94.10
2019-03-20T09:15:54.216Z,94.20
2019-03-20T09:18:23.126Z,94.50
2019-03-20T09:20:52.008Z,93.90
2019-03-20T09:23:20.971Z,93.40
2019-03-20T09:25:49.804Z,92.90
2019-03-20T09:28:18.794Z,93.10
2019-03-20T09:30:47.720Z,92.80
2019-03-20T09:33:16.660Z,92.80
2019-03-20T09:35:45.555Z,92.40
2019-03-20T09:38:14.995Z,92.20
2019-03-20T09:40:43.831Z,92.20
2019-03-20T09:43:12.756Z,92.50
2019-03-20T09:45:41.636Z,93.20
2019-03-20T09:48:11.188Z,92.60
2019-03-20T09:50:40.089Z,92.00
2019-03-20T09:53:09.006Z,92.10
2019-03-20T09:55:45.397Z,92.40
2019-03-20T09:58:14.304Z,92.50
2019-03-20T10:00:43.175Z,90.90
2019-03-20T10:03:12.072Z,91.50
2019-03-20T10:05:41.027Z,92.00
2019-03-20T10:08:09.914Z,91.60
2019-03-20T10:10:38.746Z,91.40
2019-03-20T10:13:07.867Z,92.10
2019-03-20T10:15:36.724Z,91.90
2019-03-20T10:18:05.613Z,91.90
2019-03-20T10:20:35.186Z,92.20
2019-03-20T10:23:04.386Z,92.00
2019-03-20T10:25:43.867Z,91.90
2019-03-20T10:28:03.866Z,92.00
2019-03-20T10:30:32.777Z,92.10
2019-03-20T10:33:01.650Z,91.50
2019-03-20T10:35:30.900Z,91.50
2019-03-20T10:37:59.773Z,92.20
2019-03-20T10:40:29.013Z,92.10
2019-03-20T10:42:57.993Z,91.50
2019-03-20T10:45:27.052Z,90.90
2019-03-20T10:47:55.994Z,90.90
2019-03-20T10:50:29.220Z,90.50
2019-03-20T10:52:58.137Z,90.60
2019-03-20T10:55:27.167Z,91.40
2019-03-20T10:57:56.081Z,90.80
2019-03-20T11:00:27.048Z,91.30
2019-03-20T11:02:56.021Z,90.80
2019-03-20T11:05:25.140Z,90.10
2019-03-20T11:07:54.098Z,91.50
2019-03-20T11:10:27.072Z,90.30
2019-03-20T11:12:58.008Z,90.90
2019-03-20T11:15:29.617Z,90.20
2019-03-20T11:17:58.463Z,90.70
2019-03-20T11:20:27.342Z,90.20
2019-03-20T11:22:56.451Z,90.60
2019-03-20T11:25:31.528Z,90.90
2019-03-20T11:28:00.389Z,90.50
2019-03-20T11:30:30.352Z,90.90
2019-03-20T11:32:59.259Z,91.40
2019-03-20T11:35:28.274Z,90.40
2019-03-20T11:37:57.163Z,90.00
2019-03-20T11:40:30.696Z,91.40
2019-03-20T11:42:59.904Z,90.40
2019-03-20T11:45:28.736Z,91.00
2019-03-20T11:47:57.667Z,90.50
2019-03-20T11:50:31.701Z,90.70
2019-03-20T11:53:00.577Z,91.00
2019-03-20T11:55:29.480Z,90.60
2019-03-20T11:57:58.370Z,90.00
2019-03-20T12:00:36.984Z,90.20
2019-03-20T12:03:06.176Z,89.90
2019-03-20T12:05:35.070Z,89.50
2019-03-20T12:08:04.245Z,90.90
2019-03-20T12:10:33.760Z,90.80
2019-03-20T12:13:02.645Z,90.60
2019-03-20T12:15:31.604Z,88.40
2019-03-20T12:18:00.566Z,90.00
2019-03-20T12:20:29.409Z,87.10
2019-03-20T12:22:58.326Z,86.60
2019-03-20T12:25:28.977Z,82.30
2019-03-20T12:27:57.883Z,83.00
2019-03-20T12:30:29.097Z,81.70
2019-03-20T12:32:58.066Z,79.80
2019-03-20T12:35:32.114Z,81.60
2019-03-20T12:38:01.038Z,81.40
2019-03-20T12:40:30.915Z,81.80
2019-03-20T12:43:00.377Z,81.60
2019-03-20T12:45:34.323Z,81.50
2019-03-20T12:48:03.311Z,79.10
2019-03-20T12:50:32.559Z,81.70
2019-03-20T12:53:02.033Z,78.70
2019-03-20T12:55:31.353Z,78.60
2019-03-20T12:58:08.723Z,79.40
2019-03-20T13:00:36.801Z,79.20
2019-03-20T13:03:05.799Z,83.30
2019-03-20T13:05:34.643Z,79.70
2019-03-20T13:08:06.048Z,79.30
2019-03-20T13:10:34.067Z,79.90
2019-03-20T13:13:03.087Z,79.70
2019-03-20T13:15:33.551Z,78.00
2019-03-20T13:18:02.685Z,78.70
2019-03-20T13:20:32.417Z,76.50
2019-03-20T13:23:04.231Z,77.40
2019-03-20T13:25:33.164Z,79.00
2019-03-20T13:28:02.037Z,73.50
2019-03-20T13:30:32.267Z,73.80
2019-03-20T13:33:01.149Z,73.10
2019-03-20T13:35:30.071Z,71.90
2019-03-20T13:37:58.954Z,72.40
2019-03-20T13:40:27.809Z,70.10
2019-03-20T13:42:56.722Z,73.70
2019-03-20T13:45:26.708Z,70.40
2019-03-20T13:47:55.619Z,71.10
2019-03-20T13:50:24.660Z,67.70
2019-03-20T13:52:53.520Z,67.70
2019-03-20T13:55:22.417Z,68.40
2019-03-20T13:57:51.362Z,67.20
2019-03-20T14:00:21.913Z,64.60
2019-03-20T14:02:52.392Z,69.70
2019-03-20T14:05:24.290Z,68.40
2019-03-20T14:07:53.162Z,69.70
2019-03-20T14:10:26.067Z,69.70
2019-03-20T14:12:55.361Z,68.90
2019-03-20T14:15:24.259Z,70.00
2019-03-20T14:17:53.167Z,68.50
2019-03-20T14:20:26.870Z,69.50
2019-03-20T14:22:55.768Z,71.40
2019-03-20T14:25:24.724Z,70.40
2019-03-20T14:27:53.740Z,71.30
2019-03-20T14:30:25.569Z,70.40
2019-03-20T14:32:54.522Z,71.90
2019-03-20T14:35:23.454Z,71.80
2019-03-20T14:37:52.484Z,69.20
2019-03-20T14:40:35.427Z,73.10
2019-03-20T14:42:59.733Z,70.20
2019-03-20T14:45:28.744Z,72.90
2019-03-20T14:47:57.648Z,74.40
2019-03-20T14:50:31.069Z,74.40
2019-03-20T14:53:00.028Z,72.50
2019-03-20T14:55:28.995Z,73.20
2019-03-20T14:57:59.074Z,73.30
2019-03-20T15:00:32.131Z,72.90
2019-03-20T15:03:01.057Z,73.00
2019-03-20T15:05:36.003Z,76.60
2019-03-20T15:08:04.957Z,73.90
2019-03-20T15:10:33.848Z,76.90
2019-03-20T15:13:02.707Z,75.90
2019-03-20T15:15:37.449Z,74.30
2019-03-20T15:18:07.323Z,78.00
2019-03-20T15:20:36.328Z,74.70
2019-03-20T15:23:17.401Z,75.10
2019-03-20T15:25:46.273Z,74.80
2019-03-20T15:28:15.145Z,76.30
2019-03-20T15:30:44.087Z,73.80
2019-03-20T15:33:13.015Z,75.10
2019-03-20T15:35:41.885Z,74.60
2019-03-20T15:38:10.773Z,75.00
2019-03-20T15:40:39.712Z,73.70
2019-03-20T15:43:08.599Z,76.00
2019-03-20T15:45:37.477Z,75.90
2019-03-20T15:48:06.395Z,75.20
2019-03-20T15:50:35.255Z,75.40
2019-03-20T15:53:04.131Z,74.10
2019-03-20T15:55:34.468Z,74.00
2019-03-20T15:58:03.335Z,75.10
2019-03-20T16:00:32.295Z,73.60
2019-03-20T16:03:22.495Z,75.50
2019-03-20T16:05:51.368Z,73.20
2019-03-20T16:08:20.541Z,74.70
2019-03-20T16:10:49.453Z,73.10
2019-03-20T16:13:18.325Z,74.20
2019-03-20T16:15:47.190Z,72.60
2019-03-20T16:18:16.101Z,76.10
2019-03-20T16:20:44.977Z,73.00
2019-03-20T16:23:13.850Z,74.00
2019-03-20T16:25:42.773Z,74.50
2019-03-20T16:28:11.639Z,71.40
2019-03-20T16:30:40.497Z,72.50
2019-03-20T16:33:09.414Z,71.10
2019-03-20T16:35:38.281Z,69.10
2019-03-20T16:38:07.235Z,69.30
2019-03-20T16:40:36.959Z,72.60
2019-03-20T16:43:07.165Z,73.10
2019-03-20T16:45:39.097Z,70.60
2019-03-20T16:48:08.019Z,69.50
2019-03-20T16:50:36.900Z,70.30
2019-03-20T16:53:05.945Z,70.20
2019-03-20T16:55:34.918Z,69.40
2019-03-20T16:58:03.792Z,71.40
2019-03-20T17:00:33.838Z,70.30
2019-03-20T17:03:02.722Z,71.60
2019-03-20T17:05:31.886Z,73.30
2019-03-20T17:08:00.794Z,71.50
2019-03-20T17:10:35.229Z,72.90
2019-03-20T17:13:04.947Z,72.40
2019-03-20T17:15:41.802Z,70.10
2019-03-20T17:18:10.747Z,71.30
2019-03-20T17:20:39.762Z,72.30
2019-03-20T17:23:09.002Z,72.00
2019-03-20T17:25:37.935Z,74.50
2019-03-20T17:28:07.629Z,74.90
2019-03-20T17:30:38.562Z,75.00
2019-03-20T17:33:07.991Z,74.00
2019-03-20T17:35:36.860Z,74.70
2019-03-20T17:38:06.358Z,76.10
2019-03-20T17:40:35.264Z,72.90
2019-03-20T17:43:04.711Z,71.00
2019-03-20T17:45:34.094Z,71.30
2019-03-20T17:48:02.954Z,71.90
2019-03-20T17:50:43.967Z,69.10
2019-03-20T17:53:12.879Z,71.60
2019-03-20T17:55:41.757Z,68.30
2019-03-20T17:58:10.683Z,69.40
2019-03-20T18:00:41.243Z,74.20
2019-03-20T18:03:10.416Z,74.30
2019-03-20T18:05:39.628Z,72.30
2019-03-20T18:08:09.094Z,73.70
2019-03-20T18:10:37.977Z,74.10
2019-03-20T18:13:07.560Z,75.30
2019-03-20T18:15:36.582Z,74.80
2019-03-20T18:18:06.959Z,75.50
2019-03-20T18:20:36.036Z,76.10
2019-03-20T18:23:05.346Z,76.30
2019-03-20T18:25:34.295Z,77.50
2019-03-20T18:28:03.174Z,76.50
2019-03-20T18:30:37.257Z,78.40
2019-03-20T18:33:06.130Z,77.90
2019-03-20T18:35:36.799Z,79.10
2019-03-20T18:38:06.907Z,77.60
2019-03-20T18:40:35.767Z,78.10
2019-03-20T18:43:04.837Z,79.30
2019-03-20T18:45:33.814Z,79.00
2019-03-20T18:48:04.206Z,79.20
2019-03-20T18:50:36.207Z,79.60
2019-03-20T18:53:05.418Z,78.70
2019-03-20T18:55:34.282Z,80.30
2019-03-20T18:58:03.162Z,79.70
2019-03-20T19:00:44.263Z,80.10
2019-03-20T19:03:16.178Z,80.00
2019-03-20T19:05:59.964Z,79.90
2019-03-20T19:08:33.075Z,80.00
2019-03-20T19:11:04.894Z,80.00
2019-03-20T19:13:35.488Z,79.60
2019-03-20T19:16:05.855Z,80.00
2019-03-20T19:18:34.798Z,81.30
2019-03-20T19:21:03.973Z,81.30
2019-03-20T19:23:32.913Z,81.50
2019-03-20T19:26:08.896Z,81.80
2019-03-20T19:28:41.857Z,81.80
2019-03-20T19:31:12.860Z,81.80
2019-03-20T19:33:44.732Z,81.20
2019-03-20T19:36:15.462Z,81.80
2019-03-20T19:38:44.320Z,81.40
2019-03-20T19:41:14.650Z,82.00
2019-03-20T19:43:44.272Z,82.30
2019-03-20T19:46:13.615Z,82.90
2019-03-20T19:48:45.745Z,82.80
2019-03-20T19:51:18.914Z,82.70
2019-03-20T19:53:49.799Z,82.50
2019-03-20T19:56:18.675Z,82.70
2019-03-20T19:58:49.351Z,82.90
2019-03-20T20:01:26.708Z,83.00
2019-03-20T20:03:57.094Z,83.20
2019-03-20T20:06:25.964Z,82.80
2019-03-20T20:08:54.866Z,83.30
2019-03-20T20:11:25.240Z,83.90
2019-03-20T20:13:59.130Z,84.20
2019-03-20T20:16:27.993Z,84.70
2019-03-20T20:18:58.092Z,85.20
2019-03-20T20:21:27.065Z,85.80
2019-03-20T20:23:58.636Z,86.20
2019-03-20T20:26:27.555Z,86.60
2019-03-20T20:29:00.780Z,87.10
2019-03-20T20:31:29.683Z,87.20
2019-03-20T20:33:58.805Z,87.80
2019-03-20T20:36:29.763Z,88.10
2019-03-20T20:38:58.612Z,88.30
2019-03-20T20:41:29.835Z,88.70
2019-03-20T20:43:58.721Z,88.80
2019-03-20T20:46:27.591Z,89.10
2019-03-20T20:48:56.524Z,89.30
2019-03-20T20:51:25.398Z,89.50
2019-03-20T20:53:56.614Z,89.80
2019-03-20T20:56:25.558Z,89.80
2019-03-20T20:58:54.426Z,90.00
2019-03-20T21:01:23.750Z,90.10
2019-03-20T21:03:52.646Z,90.40
2019-03-20T21:06:21.523Z,90.70
2019-03-20T21:08:53.420Z,90.40
2019-03-20T21:11:20.988Z,90.50
2019-03-20T21:13:49.860Z,90.70
2019-03-20T21:16:23.559Z,90.70
2019-03-20T21:19:21.834Z,90.70
2019-03-20T21:22:17.431Z,91.00
2019-03-20T21:24:46.784Z,91.10
2019-03-20T21:27:40.436Z,91.20
2019-03-20T21:30:21.776Z,91.30
2019-03-20T21:32:59.663Z,91.60
2019-03-20T21:36:04.724Z,91.70
2019-03-20T21:38:33.609Z,91.80
2019-03-20T21:41:20.526Z,91.90
2019-03-20T21:44:13.581Z,91.90
2019-03-20T21:47:20.238Z,92.10
2019-03-20T21:49:50.329Z,92.20
2019-03-20T21:52:20.854Z,92.20
2019-03-20T21:55:09.166Z,92.10
2019-03-20T21:57:40.986Z,92.00
2019-03-20T22:00:22.443Z,91.90
2019-03-20T22:02:51.342Z,91.60
2019-03-20T22:05:40.020Z,91.60
2019-03-20T22:08:11.970Z,91.30
2019-03-20T22:10:58.816Z,90.90
2019-03-20T22:13:42.692Z,90.90
2019-03-20T22:16:42.236Z,91.10
2019-03-20T22:19:25.556Z,90.70
2019-03-20T22:22:20.895Z,90.80
2019-03-20T22:25:11.134Z,90.70
2019-03-20T22:27:54.849Z,90.50
2019-03-20T22:30:25.323Z,90.40
2019-03-20T22:33:33.978Z,90.20
2019-03-20T22:36:07.024Z,89.70
2019-03-20T22:38:45.771Z,89.50
2019-03-20T22:41:33.193Z,88.70
2019-03-20T22:44:02.792Z,87.50
2019-03-20T22:46:51.629Z,86.70
2019-03-20T22:49:36.319Z,85.80
2019-03-20T22:52:13.923Z,84.80
2019-03-20T22:55:04.255Z,83.70
2019-03-20T22:57:47.572Z,84.50
2019-03-20T23:00:20.840Z,83.30
2019-03-20T23:02:59.014Z,82.60
2019-03-20T23:05:36.597Z,83.70
2019-03-20T23:08:16.287Z,84.50
2019-03-20T23:10:48.190Z,84.00
2019-03-20T23:13:19.154Z,84.50
2019-03-20T23:15:50.779Z,84.50
2019-03-20T23:18:21.699Z,84.60
2019-03-20T23:20:51.338Z,84.90
2019-03-20T23:23:21.786Z,84.40
2019-03-20T23:25:52.358Z,84.10
2019-03-20T23:28:22.852Z,83.10
2019-03-20T23:30:51.797Z,83.00
2019-03-20T23:33:21.050Z,83.10
2019-03-20T23:35:50.034Z,83.00
2019-03-20T23:38:18.985Z,83.00
2019-03-20T23:40:47.963Z,82.80
2019-03-20T23:43:16.990Z,83.00
2019-03-20T23:45:45.943Z,82.90
2019-03-20T23:48:20.774Z,83.10
2019-03-20T23:50:52.711Z,83.00
2019-03-20T23:53:21.604Z,83.00
2019-03-20T23:55:57.242Z,83.20
2019-03-20T23:58:27.264Z,83.20
